createdAt,value
2018-03-24T00:02:06.341Z,5.10
2018-03-24T00:04:35.194Z,5.20
2018-03-24T00:07:03.863Z,5.20
2018-03-24T00:09:32.387Z,5.10
2018-03-24T00:12:00.879Z,5.10
2018-03-24T00:14:29.349Z,5.10
2018-03-24T00:16:57.834Z,5.10
2018-03-24T00:19:26.254Z,5.10
2018-03-24T00:21:54.675Z,5.00
2018-03-24T00:24:23.858Z,5.00
2018-03-24T00:26:52.298Z,5.00
2018-03-24T00:29:20.758Z,5.00
2018-03-24T00:31:49.202Z,5.00
2018-03-24T00:34:17.677Z,5.00
2018-03-24T00:36:46.891Z,5.00
2018-03-24T00:39:15.276Z,5.00
2018-03-24T00:41:43.735Z,4.90
2018-03-24T00:44:12.967Z,5.00
2018-03-24T00:46:41.806Z,4.90
2018-03-24T00:49:10.278Z,4.90
2018-03-24T00:51:38.738Z,5.00
2018-03-24T00:54:07.166Z,5.00
2018-03-24T00:56:35.608Z,4.90
2018-03-24T00:59:04.037Z,4.90
2018-03-24T01:01:32.478Z,4.90
2018-03-24T01:04:00.944Z,4.90
2018-03-24T01:06:29.371Z,4.90
2018-03-24T01:08:57.815Z,4.90
2018-03-24T01:11:26.248Z,4.90
2018-03-24T01:13:54.717Z,4.90
2018-03-24T01:16:23.145Z,4.80
2018-03-24T01:18:51.583Z,4.80
2018-03-24T01:21:20.817Z,4.80
2018-03-24T01:23:49.267Z,4.80
2018-03-24T01:26:17.716Z,4.80
2018-03-24T01:28:46.921Z,4.80
2018-03-24T01:31:15.376Z,4.80
2018-03-24T01:33:44.644Z,4.70
2018-03-24T01:36:13.048Z,4.70
2018-03-24T01:38:41.530Z,4.70
2018-03-24T01:41:10.322Z,4.70
2018-03-24T01:43:38.778Z,4.70
2018-03-24T01:46:07.180Z,4.70
2018-03-24T01:48:35.566Z,4.70
2018-03-24T01:51:04.785Z,4.70
2018-03-24T01:53:45.092Z,4.70
2018-03-24T01:56:13.598Z,4.70
2018-03-24T01:58:42.785Z,4.60
2018-03-24T02:01:11.769Z,4.60
2018-03-24T02:03:40.196Z,4.60
2018-03-24T02:06:08.672Z,4.60
2018-03-24T02:08:37.125Z,4.60
2018-03-24T02:11:06.364Z,4.60
2018-03-24T02:13:35.147Z,4.60
2018-03-24T02:16:03.598Z,4.60
2018-03-24T02:18:32.058Z,4.60
2018-03-24T02:23:59.846Z,4.60
2018-03-24T02:26:28.387Z,4.60
2018-03-24T02:28:56.845Z,4.60
2018-03-24T02:31:25.345Z,4.60
2018-03-24T02:33:54.608Z,4.50
2018-03-24T02:36:23.045Z,4.50
2018-03-24T02:38:52.260Z,4.50
2018-03-24T02:41:20.798Z,4.50
2018-03-24T02:43:50.032Z,4.50
2018-03-24T02:46:18.545Z,4.50
2018-03-24T02:48:47.037Z,4.50
2018-03-24T02:51:15.522Z,4.50
2018-03-24T02:53:43.991Z,4.50
2018-03-24T02:58:47.106Z,4.50
2018-03-24T03:01:15.623Z,4.40
2018-03-24T03:03:44.107Z,4.40
2018-03-24T03:06:13.325Z,4.40
2018-03-24T03:08:41.808Z,4.40
2018-03-24T03:11:10.332Z,4.40
2018-03-24T03:13:39.568Z,4.40
2018-03-24T03:16:08.805Z,4.40
2018-03-24T03:18:37.250Z,4.40
2018-03-24T03:21:05.760Z,4.40
2018-03-24T03:23:34.322Z,4.40
2018-03-24T03:26:02.819Z,4.40
2018-03-24T03:28:31.984Z,4.40
2018-03-24T03:33:56.313Z,4.40
2018-03-24T03:36:25.633Z,4.40
2018-03-24T03:38:54.928Z,4.40
2018-03-24T03:41:23.383Z,4.40
2018-03-24T03:43:51.868Z,4.40
2018-03-24T03:46:20.353Z,4.30
2018-03-24T03:48:49.556Z,4.30
2018-03-24T03:51:19.278Z,4.30
2018-03-24T03:53:47.747Z,4.30
2018-03-24T03:56:16.288Z,4.30
2018-03-24T03:58:45.568Z,4.30
2018-03-24T04:01:15.008Z,4.30
2018-03-24T04:03:43.564Z,4.30
2018-03-24T04:06:13.886Z,4.30
2018-03-24T04:08:45.375Z,4.30
2018-03-24T04:11:13.890Z,4.30
2018-03-24T04:13:42.927Z,4.30
2018-03-24T04:16:11.471Z,4.30
2018-03-24T04:18:40.033Z,4.30
2018-03-24T04:21:08.540Z,4.30
2018-03-24T04:23:37.815Z,4.30
2018-03-24T04:26:07.023Z,4.20
2018-03-24T04:28:36.323Z,4.20
2018-03-24T04:31:04.847Z,4.20
2018-03-24T04:33:34.148Z,4.20
2018-03-24T04:36:03.078Z,4.20
2018-03-24T04:38:31.608Z,4.20
2018-03-24T04:41:01.843Z,4.20
2018-03-24T04:43:30.473Z,4.20
2018-03-24T04:45:59.879Z,4.20
2018-03-24T04:48:29.687Z,4.20
2018-03-24T04:50:58.282Z,4.20
2018-03-24T04:53:27.774Z,4.20
2018-03-24T04:55:57.043Z,4.20
2018-03-24T04:58:26.446Z,4.20
2018-03-24T05:00:55.461Z,4.20
2018-03-24T05:03:23.977Z,4.10
2018-03-24T05:05:54.180Z,4.10
2018-03-24T05:08:22.697Z,4.10
2018-03-24T05:10:52.213Z,4.10
2018-03-24T05:13:21.721Z,4.10
2018-03-24T05:15:50.184Z,4.10
2018-03-24T05:18:19.484Z,4.10
2018-03-24T05:20:48.727Z,4.10
2018-03-24T05:23:17.209Z,4.10
2018-03-24T05:25:46.763Z,4.10
2018-03-24T05:28:16.041Z,4.10
2018-03-24T05:30:44.570Z,4.10
2018-03-24T05:33:13.475Z,4.10
2018-03-24T05:35:41.894Z,4.10
2018-03-24T05:38:10.387Z,4.10
2018-03-24T05:40:39.731Z,4.20
2018-03-24T05:43:08.258Z,4.20
2018-03-24T05:45:38.074Z,4.20
2018-03-24T05:48:07.280Z,4.20
2018-03-24T05:50:37.660Z,4.30
2018-03-24T05:53:06.946Z,4.20
2018-03-24T05:55:35.490Z,4.30
2018-03-24T05:58:04.007Z,4.30
2018-03-24T06:00:33.282Z,4.30
2018-03-24T06:03:01.851Z,4.40
2018-03-24T06:05:31.799Z,4.50
2018-03-24T06:08:00.941Z,4.50
2018-03-24T06:10:30.247Z,4.50
2018-03-24T06:13:00.614Z,4.60
2018-03-24T06:15:29.904Z,4.60
2018-03-24T06:17:58.410Z,4.70
2018-03-24T06:20:27.849Z,4.70
2018-03-24T06:22:56.325Z,4.70
2018-03-24T06:25:25.527Z,4.80
2018-03-24T06:27:55.154Z,4.90
2018-03-24T06:30:38.544Z,4.90
2018-03-24T06:33:07.847Z,5.00
2018-03-24T06:35:37.637Z,5.10
2018-03-24T06:38:07.615Z,5.20
2018-03-24T06:40:36.790Z,5.20
2018-03-24T06:43:05.378Z,5.30
2018-03-24T06:45:34.426Z,5.40
2018-03-24T06:48:05.572Z,5.40
2018-03-24T06:50:34.154Z,5.50
2018-03-24T06:53:03.834Z,5.50
2018-03-24T06:55:33.448Z,5.50
2018-03-24T07:01:15.569Z,5.60
2018-03-24T07:03:50.361Z,5.70
2018-03-24T07:06:20.241Z,5.80
2018-03-24T07:08:49.489Z,5.90
2018-03-24T07:11:19.714Z,6.00
2018-03-24T07:13:51.140Z,6.00
2018-03-24T07:16:19.538Z,6.00
2018-03-24T07:18:48.672Z,6.00
2018-03-24T07:21:18.122Z,6.10
2018-03-24T07:23:46.732Z,6.10
2018-03-24T07:26:15.340Z,6.20
2018-03-24T07:28:44.627Z,6.30
2018-03-24T07:31:13.210Z,6.30
2018-03-24T07:33:42.617Z,6.60
2018-03-24T07:36:11.616Z,6.60
2018-03-24T07:38:40.864Z,6.80
2018-03-24T07:41:10.394Z,6.90
2018-03-24T07:43:40.794Z,7.00
2018-03-24T07:46:13.415Z,7.10
2018-03-24T07:48:41.850Z,7.30
2018-03-24T07:51:10.242Z,7.50
2018-03-24T07:53:39.431Z,7.80
2018-03-24T07:56:08.572Z,7.90
2018-03-24T07:58:36.975Z,7.90
2018-03-24T08:01:05.414Z,8.00
2018-03-24T08:03:33.839Z,8.00
2018-03-24T08:06:02.634Z,8.10
2018-03-24T08:08:31.044Z,8.40
2018-03-24T08:11:01.020Z,8.50
2018-03-24T08:13:29.556Z,8.50
2018-03-24T08:15:58.332Z,8.60
2018-03-24T08:18:26.715Z,8.50
2018-03-24T08:20:55.108Z,8.50
2018-03-24T08:23:23.676Z,8.50
2018-03-24T08:25:53.262Z,8.60
2018-03-24T08:28:24.839Z,8.50
2018-03-24T08:30:53.283Z,8.50
2018-03-24T08:33:22.118Z,8.70
2018-03-24T08:35:51.802Z,8.70
2018-03-24T08:38:20.276Z,8.80
2018-03-24T08:40:49.481Z,9.10
2018-03-24T08:43:17.873Z,9.10
2018-03-24T08:45:46.288Z,9.10
2018-03-24T08:48:14.653Z,9.00
2018-03-24T08:50:43.046Z,9.10
2018-03-24T08:53:11.513Z,9.30
2018-03-24T08:55:40.319Z,9.30
2018-03-24T08:58:08.718Z,9.30
2018-03-24T09:00:37.929Z,9.40
2018-03-24T09:03:06.587Z,9.40
2018-03-24T09:05:36.659Z,9.50
2018-03-24T09:08:06.236Z,9.50
2018-03-24T09:10:34.626Z,9.60
2018-03-24T09:13:03.043Z,9.70
2018-03-24T09:15:31.531Z,9.80
2018-03-24T09:18:00.350Z,10.00
2018-03-24T09:20:29.517Z,10.10
2018-03-24T09:22:57.934Z,10.10
2018-03-24T09:25:27.311Z,10.20
2018-03-24T09:27:55.696Z,10.20
2018-03-24T09:30:24.922Z,10.20
2018-03-24T09:32:53.348Z,10.10
2018-03-24T09:35:21.831Z,10.20
2018-03-24T09:37:50.240Z,10.40
2018-03-24T09:40:18.753Z,10.30
2018-03-24T09:42:47.156Z,10.50
2018-03-24T09:45:15.595Z,10.70
2018-03-24T09:47:44.115Z,10.70
2018-03-24T09:50:12.581Z,10.50
2018-03-24T09:52:41.080Z,10.60
2018-03-24T09:55:09.457Z,10.80
2018-03-24T09:57:37.900Z,10.60
2018-03-24T10:00:06.361Z,10.70
2018-03-24T10:02:34.752Z,10.80
2018-03-24T10:05:03.337Z,10.70
2018-03-24T10:07:31.762Z,10.60
2018-03-24T10:10:00.251Z,10.60
2018-03-24T10:12:28.736Z,10.70
2018-03-24T10:14:57.173Z,10.90
2018-03-24T10:17:25.581Z,10.80
2018-03-24T10:19:54.022Z,10.80
2018-03-24T10:47:02.723Z,11.20
2018-03-24T10:49:31.171Z,11.20
2018-03-24T10:51:59.822Z,11.20
2018-03-24T10:54:29.014Z,11.40
2018-03-24T10:56:57.400Z,11.40
2018-03-24T10:59:26.552Z,11.40
2018-03-24T11:01:55.030Z,11.30
2018-03-24T11:04:23.440Z,11.30
2018-03-24T11:06:51.870Z,11.20
2018-03-24T11:09:20.292Z,11.00
2018-03-24T11:11:48.730Z,11.00
2018-03-24T11:14:17.107Z,11.00
2018-03-24T11:16:45.515Z,10.70
2018-03-24T11:19:13.900Z,10.70
2018-03-24T11:21:42.306Z,10.80
2018-03-24T11:24:11.506Z,10.80
2018-03-24T11:26:40.632Z,10.90
2018-03-24T11:29:09.147Z,10.90
2018-03-24T11:31:37.507Z,11.00
2018-03-24T11:34:05.953Z,11.10
2018-03-24T11:36:34.380Z,11.20
2018-03-24T11:39:02.812Z,11.20
2018-03-24T11:41:31.259Z,11.10
2018-03-24T11:44:00.457Z,10.80
2018-03-24T11:46:29.612Z,10.80
2018-03-24T11:48:58.006Z,10.80
2018-03-24T11:51:26.409Z,10.80
2018-03-24T11:53:54.785Z,11.00
2018-03-24T11:56:23.207Z,11.00
2018-03-24T11:58:51.612Z,11.10
2018-03-24T12:01:20.000Z,11.30
2018-03-24T12:03:48.386Z,11.40
2018-03-24T12:06:16.773Z,11.60
2018-03-24T12:08:46.217Z,11.50
2018-03-24T12:11:20.500Z,11.70
2018-03-24T12:13:50.898Z,11.70
2018-03-24T12:16:22.082Z,11.70
2018-03-24T12:18:52.776Z,11.70
2018-03-24T12:21:21.624Z,11.70
2018-03-24T12:23:49.994Z,11.70
2018-03-24T12:26:18.471Z,11.60
2018-03-24T12:28:47.909Z,11.50
2018-03-24T12:31:16.391Z,11.60
2018-03-24T12:33:44.755Z,11.40
2018-03-24T12:36:13.116Z,11.60
2018-03-24T12:38:45.638Z,11.50
2018-03-24T12:41:14.947Z,11.50
2018-03-24T12:43:44.863Z,11.50
2018-03-24T12:46:15.184Z,11.40
2018-03-24T12:48:43.636Z,11.40
2018-03-24T12:51:12.063Z,11.30
2018-03-24T12:53:41.238Z,11.30
2018-03-24T12:56:09.598Z,11.30
2018-03-24T12:58:38.039Z,11.50
2018-03-24T13:01:06.456Z,11.70
2018-03-24T13:03:34.852Z,11.70
2018-03-24T13:06:03.246Z,11.80
2018-03-24T13:08:32.401Z,11.70
2018-03-24T13:11:00.832Z,11.70
2018-03-24T13:13:29.242Z,11.80
2018-03-24T13:15:57.662Z,11.80
2018-03-24T13:18:26.071Z,11.80
2018-03-24T13:20:54.454Z,11.80
2018-03-24T13:23:22.828Z,11.80
2018-03-24T13:25:51.217Z,11.70
2018-03-24T13:28:20.639Z,11.60
2018-03-24T13:30:49.094Z,11.60
2018-03-24T13:33:17.479Z,11.70
2018-03-24T13:35:45.859Z,11.60
2018-03-24T13:38:14.230Z,11.60
2018-03-24T13:40:42.658Z,11.60
2018-03-24T13:43:11.086Z,11.50
2018-03-24T13:45:39.442Z,11.60
2018-03-24T13:48:08.586Z,11.60
2018-03-24T13:50:37.023Z,11.60
2018-03-24T13:53:05.400Z,11.70
2018-03-24T13:55:33.776Z,11.70
2018-03-24T13:58:02.132Z,11.80
2018-03-24T14:00:30.594Z,12.00
2018-03-24T14:02:58.983Z,12.10
2018-03-24T14:05:27.398Z,12.10
2018-03-24T14:07:55.827Z,12.20
2018-03-24T14:10:24.245Z,12.00
2018-03-24T14:12:52.986Z,12.00
2018-03-24T14:15:21.380Z,12.00
2018-03-24T14:17:49.782Z,12.10
2018-03-24T14:20:19.354Z,11.80
2018-03-24T14:22:47.771Z,11.80
2018-03-24T14:25:16.181Z,11.70
2018-03-24T14:27:44.660Z,11.60
2018-03-24T14:30:13.036Z,11.80
2018-03-24T14:32:42.167Z,12.50
2018-03-24T14:35:10.616Z,12.50
2018-03-24T14:37:39.051Z,12.60
2018-03-24T14:40:07.457Z,12.60
2018-03-24T14:42:36.625Z,12.10
2018-03-24T14:45:05.797Z,12.10
2018-03-24T14:47:34.226Z,12.10
2018-03-24T14:50:02.611Z,12.00
2018-03-24T14:52:30.968Z,12.00
2018-03-24T14:54:59.399Z,11.90
2018-03-24T14:57:27.800Z,12.00
2018-03-24T14:59:56.205Z,12.10
2018-03-24T15:02:24.559Z,12.40
2018-03-24T15:04:52.947Z,12.60
2018-03-24T15:07:22.088Z,12.40
2018-03-24T15:09:50.480Z,12.40
2018-03-24T15:12:18.933Z,12.20
2018-03-24T15:14:47.332Z,12.10
2018-03-24T15:17:15.746Z,12.30
2018-03-24T15:19:44.910Z,12.30
2018-03-24T15:22:13.272Z,12.30
2018-03-24T15:24:41.731Z,12.40
2018-03-24T15:27:10.106Z,12.20
2018-03-24T15:29:50.304Z,12.10
2018-03-24T15:32:30.428Z,12.10
2018-03-24T15:35:10.707Z,11.90
2018-03-24T15:37:39.140Z,11.80
2018-03-24T15:40:07.584Z,11.70
2018-03-24T15:42:35.992Z,11.60
2018-03-24T15:45:05.230Z,11.50
2018-03-24T15:47:33.614Z,11.50
2018-03-24T15:50:02.056Z,11.40
2018-03-24T15:52:30.517Z,11.30
2018-03-24T15:54:59.693Z,11.20
2018-03-24T15:57:28.099Z,11.20
2018-03-24T15:59:57.241Z,11.10
2018-03-24T16:02:25.645Z,11.10
2018-03-24T16:04:54.072Z,11.00
2018-03-24T16:07:22.895Z,10.90
2018-03-24T16:09:51.345Z,10.80
2018-03-24T16:12:19.732Z,10.70
2018-03-24T16:14:48.177Z,10.70
2018-03-24T16:17:16.560Z,10.60
2018-03-24T16:19:45.034Z,10.60
2018-03-24T16:22:14.185Z,10.50
2018-03-24T16:24:42.638Z,10.50
2018-03-24T16:27:11.046Z,10.50
2018-03-24T16:29:39.407Z,10.40
2018-03-24T16:32:07.834Z,10.40
2018-03-24T16:34:36.246Z,10.30
2018-03-24T16:37:05.001Z,10.20
2018-03-24T16:39:34.124Z,10.20
2018-03-24T16:42:02.539Z,10.10
2018-03-24T16:44:30.957Z,10.10
2018-03-24T16:47:00.135Z,10.00
2018-03-24T16:49:28.506Z,9.90
2018-03-24T16:51:56.891Z,9.90
2018-03-24T16:54:25.314Z,9.80
2018-03-24T16:56:53.816Z,9.80
2018-03-24T16:59:22.192Z,9.70
2018-03-24T17:01:50.606Z,9.70
2018-03-24T17:04:19.077Z,9.70
2018-03-24T17:06:47.909Z,9.60
2018-03-24T17:09:16.322Z,9.60
2018-03-24T17:11:44.760Z,9.50
2018-03-24T17:14:13.154Z,9.50
2018-03-24T17:16:41.532Z,9.50
2018-03-24T17:19:09.947Z,9.50
2018-03-24T17:21:38.381Z,9.40
2018-03-24T17:24:06.744Z,9.30
2018-03-24T17:26:35.911Z,9.20
2018-03-24T17:29:04.322Z,9.20
2018-03-24T17:31:32.699Z,9.20
2018-03-24T17:34:01.919Z,9.00
2018-03-24T17:36:30.360Z,9.00
2018-03-24T17:38:59.475Z,8.90
2018-03-24T17:41:27.838Z,8.80
2018-03-24T17:43:57.033Z,8.70
2018-03-24T17:46:26.204Z,8.70
2018-03-24T17:48:54.626Z,8.60
2018-03-24T17:51:23.048Z,8.60
2018-03-24T17:53:53.491Z,8.50
2018-03-24T17:59:29.516Z,8.40
2018-03-24T18:02:01.098Z,8.20
2018-03-24T18:04:29.555Z,8.10
2018-03-24T18:06:58.022Z,8.00
2018-03-24T18:09:26.415Z,8.00
2018-03-24T18:11:55.146Z,7.90
2018-03-24T18:14:23.613Z,7.80
2018-03-24T18:16:52.129Z,7.70
2018-03-24T18:19:21.355Z,7.50
2018-03-24T18:21:49.764Z,7.50
2018-03-24T18:24:18.200Z,7.40
2018-03-24T18:26:46.646Z,7.20
2018-03-24T18:29:15.115Z,7.00
2018-03-24T18:31:43.552Z,6.90
2018-03-24T18:34:12.018Z,6.80
2018-03-24T18:36:40.424Z,6.80
2018-03-24T18:39:08.823Z,6.70
2018-03-24T18:41:37.252Z,6.60
2018-03-24T18:44:05.684Z,6.50
2018-03-24T18:46:34.221Z,6.50
2018-03-24T18:49:20.683Z,6.50
2018-03-24T18:51:49.276Z,6.50
2018-03-24T18:54:18.491Z,6.50
2018-03-24T18:56:47.339Z,6.50
2018-03-24T18:59:15.747Z,6.50
2018-03-24T19:01:44.966Z,6.50
2018-03-24T19:04:13.327Z,6.50
2018-03-24T19:06:42.564Z,6.50
2018-03-24T19:09:11.413Z,6.50
2018-03-24T19:11:39.838Z,6.50
2018-03-24T19:14:08.242Z,6.50
2018-03-24T19:16:36.709Z,6.50
2018-03-24T19:19:05.161Z,6.40
2018-03-24T19:21:35.611Z,6.40
2018-03-24T19:24:04.227Z,6.40
2018-03-24T19:26:33.458Z,6.30
2018-03-24T19:29:01.910Z,6.30
2018-03-24T19:31:30.794Z,6.30
2018-03-24T19:33:59.276Z,6.30
2018-03-24T19:36:28.471Z,6.20
2018-03-24T19:38:57.746Z,6.10
2018-03-24T19:41:26.260Z,6.10
2018-03-24T19:43:55.451Z,6.00
2018-03-24T19:46:24.987Z,6.00
2018-03-24T19:48:53.342Z,6.00
2018-03-24T19:51:27.360Z,5.90
2018-03-24T19:53:55.750Z,5.90
2018-03-24T19:56:24.113Z,5.80
2018-03-24T19:58:52.570Z,5.80
2018-03-24T20:01:21.760Z,5.70
2018-03-24T20:03:50.264Z,5.70
2018-03-24T20:06:18.675Z,5.70
2018-03-24T20:08:47.103Z,5.60
2018-03-24T20:11:15.572Z,5.50
2018-03-24T20:13:43.985Z,5.50
2018-03-24T20:16:13.131Z,5.40
2018-03-24T20:18:42.334Z,5.30
2018-03-24T20:21:10.802Z,5.30
2018-03-24T20:23:39.204Z,5.20
2018-03-24T20:26:07.677Z,5.10
2018-03-24T20:28:36.032Z,5.10
2018-03-24T20:31:04.458Z,5.00
2018-03-24T20:33:33.629Z,4.80
2018-03-24T20:36:02.070Z,4.80
2018-03-24T20:38:30.755Z,4.70
2018-03-24T20:40:59.143Z,4.60
2018-03-24T20:43:28.059Z,4.60
2018-03-24T20:45:56.479Z,4.50
2018-03-24T20:48:24.894Z,4.40
2018-03-24T20:50:53.329Z,4.30
2018-03-24T20:53:21.822Z,4.20
2018-03-24T20:55:50.268Z,4.10
2018-03-24T20:58:19.411Z,3.90
2018-03-24T21:00:47.843Z,3.90
2018-03-24T21:03:16.221Z,3.80
2018-03-24T21:05:45.403Z,3.70
2018-03-24T21:08:13.860Z,3.60
2018-03-24T21:10:42.255Z,3.60
2018-03-24T21:13:10.634Z,3.50
2018-03-24T21:15:39.077Z,3.50
2018-03-24T21:18:07.646Z,3.40
2018-03-24T21:20:36.054Z,3.40
2018-03-24T21:23:04.466Z,3.30
2018-03-24T21:25:32.885Z,3.20
2018-03-24T21:28:01.460Z,3.20
2018-03-24T21:30:29.873Z,3.10
2018-03-24T21:32:58.327Z,3.10
2018-03-24T21:35:26.765Z,3.00
2018-03-24T21:37:55.960Z,2.90
2018-03-24T21:40:24.400Z,2.90
2018-03-24T21:42:52.835Z,2.90
2018-03-24T21:45:22.011Z,2.80
2018-03-24T21:47:50.371Z,2.80
2018-03-24T21:50:18.832Z,2.80
2018-03-24T21:52:47.211Z,2.70
2018-03-24T21:55:15.660Z,2.70
2018-03-24T21:57:44.132Z,2.60
2018-03-24T22:00:13.316Z,2.50
2018-03-24T22:02:42.481Z,2.50
2018-03-24T22:05:10.879Z,2.50
2018-03-24T22:07:39.283Z,2.50
2018-03-24T22:10:07.673Z,2.40
2018-03-24T22:12:36.088Z,2.30
2018-03-24T22:15:04.555Z,2.30
2018-03-24T22:17:32.974Z,2.20
2018-03-24T22:20:01.359Z,2.20
2018-03-24T22:22:30.519Z,2.20
2018-03-24T22:24:59.345Z,2.10
2018-03-24T22:27:28.586Z,2.20
2018-03-24T22:29:57.016Z,2.20
2018-03-24T22:32:26.188Z,2.10
2018-03-24T22:34:54.585Z,2.10
2018-03-24T22:37:22.992Z,2.10
2018-03-24T22:39:51.366Z,2.00
2018-03-24T22:42:19.764Z,2.00
2018-03-24T22:44:48.214Z,1.90
2018-03-24T22:47:17.373Z,1.90
2018-03-24T22:49:45.774Z,1.90
2018-03-24T22:52:14.449Z,1.80
2018-03-24T22:54:42.802Z,1.90
2018-03-24T22:57:11.188Z,1.80
2018-03-24T22:59:39.822Z,1.80
2018-03-24T23:02:08.317Z,1.80
2018-03-24T23:04:36.757Z,1.70
2018-03-24T23:07:05.124Z,1.70
2018-03-24T23:09:33.476Z,1.70
2018-03-24T23:12:01.953Z,1.70
2018-03-24T23:14:30.350Z,1.60
2018-03-24T23:16:58.729Z,1.60
2018-03-24T23:19:27.150Z,1.60
2018-03-24T23:21:56.313Z,1.50
2018-03-24T23:24:24.688Z,1.50
2018-03-24T23:26:53.156Z,1.40
2018-03-24T23:29:21.564Z,1.40
2018-03-24T23:31:50.753Z,1.30
2018-03-24T23:34:19.166Z,1.30
2018-03-24T23:36:47.552Z,1.30
2018-03-24T23:39:15.949Z,1.30
2018-03-24T23:41:44.298Z,1.30
2018-03-24T23:44:12.664Z,1.30
2018-03-24T23:46:41.380Z,1.20
2018-03-24T23:49:09.791Z,1.20
2018-03-24T23:51:38.162Z,1.20
2018-03-24T23:54:07.022Z,1.20
2018-03-24T23:56:35.397Z,1.10
2018-03-24T23:59:03.767Z,1.10
